Golden Acres, Texas
Current Conditions -  °F | °C
As of 3:50 AM on Thursday 23 Oct 2014 (Local Time) from KEFD Reporting Station
Scattered Clouds Scattered Clouds  
Wind Chill: 64°   Ceiling: Unl
Heat Index: 64°   Visibility: 10mi
Dew Point: 59°   Wind: 5mph
Humidity: 83%   Direction: 30°NNE
Pressure: 30.09"   Gusts: NA
Location:  29.6998°N, 95.1579°W
Report Text: KEFD 230850Z 03004KT 10SM SCT250 18/15 A3009
Loading
Personal Weather Stations






























Interactive Weather Map
Tropical Storm Tracking
New forecast layout! Learn more

10-Day Weather Forecast

Advertisements
Track Severe Weather on mobile